Ceres, California
Current Conditions -  °F | °C
As of 11:19 PM on Saturday 22 Nov 2014 (Local Time) from KMOD Reporting Station
Moderate Fog Moderate Fog  
Wind Chill: 53°   Ceiling: 200
Heat Index: 53°   Visibility: 0.25mi
Dew Point: 51°   Wind: 9mph
Humidity: 93%   Direction: 300°WNW
Pressure: 30.22"   Gusts: NA
Location:  37.59°N, 120.95°W
Report Text: KMOD 230719Z AUTO 30008KT 1/4SM FG VV002 12/11 A3022 RMK AO2 T01170106 $
Loading
Personal Weather Stations






























Interactive Weather Map New forecast layout! Learn more

10-Day Weather Forecast

Advertisements
Track Severe Weather on mobile